createdAt,value
2019-03-31T00:01:13.350Z,4.47
2019-03-31T00:04:19.691Z,4.33
2019-03-31T00:07:26.092Z,4.47
2019-03-31T00:10:32.634Z,4.53
2019-03-31T00:13:39.143Z,4.50
2019-03-31T00:16:46.651Z,4.90
2019-03-31T00:19:52.967Z,5.20
2019-03-31T00:22:59.279Z,4.70
2019-03-31T00:26:05.603Z,5.12
2019-03-31T00:29:11.815Z,4.55
2019-03-31T00:32:18.340Z,4.92
2019-03-31T00:35:24.621Z,4.78
2019-03-31T00:38:30.880Z,5.25
2019-03-31T00:41:37.264Z,4.80
2019-03-31T00:44:43.625Z,5.20
2019-03-31T00:47:49.992Z,5.42
2019-03-31T00:50:56.363Z,5.50
2019-03-31T00:54:02.634Z,5.65
2019-03-31T00:57:09.031Z,5.47
2019-03-31T01:00:36.896Z,5.33
2019-03-31T01:03:45.176Z,5.25
2019-03-31T01:06:53.999Z,6.12
2019-03-31T01:10:00.579Z,5.20
2019-03-31T01:13:07.563Z,5.67
2019-03-31T01:16:14.453Z,5.65
2019-03-31T01:19:21.977Z,5.20
2019-03-31T01:22:28.356Z,5.55
2019-03-31T01:25:35.191Z,6.33
2019-03-31T01:28:41.723Z,5.78
2019-03-31T01:31:50.602Z,6.28
2019-03-31T01:34:56.499Z,6.10
2019-03-31T01:38:03.022Z,5.87
2019-03-31T01:41:09.395Z,5.83
2019-03-31T01:44:15.618Z,5.97
2019-03-31T01:47:22.304Z,6.10
2019-03-31T01:50:29.907Z,6.33
2019-03-31T01:53:36.256Z,5.95
2019-03-31T01:56:44.765Z,6.22
2019-03-31T01:59:50.535Z,6.40
2019-03-31T02:02:56.834Z,5.80
2019-03-31T02:06:04.327Z,6.25
2019-03-31T02:09:10.878Z,6.35
2019-03-31T02:12:17.135Z,6.37
2019-03-31T02:15:23.503Z,6.58
2019-03-31T02:18:29.958Z,6.47
2019-03-31T02:21:36.252Z,6.97
2019-03-31T02:24:42.519Z,7.20
2019-03-31T02:27:48.783Z,7.55
2019-03-31T02:30:55.053Z,6.72
2019-03-31T02:34:01.345Z,7.40
2019-03-31T02:37:07.798Z,6.05
2019-03-31T02:40:14.200Z,7.22
2019-03-31T02:43:20.483Z,7.05
2019-03-31T02:46:26.754Z,7.25
2019-03-31T02:49:33.175Z,7.25
2019-03-31T02:52:39.469Z,6.75
2019-03-31T02:55:46.113Z,7.05
2019-03-31T02:58:54.789Z,7.03
2019-03-31T03:02:02.753Z,7.65
2019-03-31T03:05:19.693Z,7.00
2019-03-31T03:08:19.821Z,7.17
2019-03-31T03:11:27.745Z,6.90
2019-03-31T03:14:37.681Z,6.78
2019-03-31T03:17:44.009Z,7.60
2019-03-31T03:20:50.271Z,7.08
2019-03-31T03:23:56.888Z,6.95
2019-03-31T03:31:24.493Z,7.40
2019-03-31T03:34:30.731Z,7.05
2019-03-31T03:37:36.974Z,7.42
2019-03-31T03:40:43.351Z,6.20
2019-03-31T03:43:55.739Z,7.05
2019-03-31T03:46:57.668Z,6.55
2019-03-31T03:50:04.108Z,7.00
2019-03-31T03:53:10.477Z,7.42
2019-03-31T03:56:16.833Z,7.10
2019-03-31T03:59:23.136Z,7.28
2019-03-31T04:02:29.681Z,7.17
2019-03-31T04:05:36.051Z,7.20
2019-03-31T04:08:42.315Z,7.90
2019-03-31T04:11:48.576Z,7.22
2019-03-31T04:14:54.844Z,6.65
2019-03-31T04:18:01.221Z,7.60
2019-03-31T04:21:07.586Z,7.28
2019-03-31T04:24:13.948Z,7.25
2019-03-31T04:27:20.227Z,7.15
2019-03-31T04:30:26.599Z,6.65
2019-03-31T04:33:49.626Z,7.10
2019-03-31T04:36:40.658Z,7.42
2019-03-31T04:39:46.963Z,7.45
2019-03-31T04:42:53.300Z,7.97
2019-03-31T04:45:59.575Z,7.35
2019-03-31T04:49:05.836Z,7.90
2019-03-31T04:52:12.331Z,8.13
2019-03-31T04:55:18.572Z,8.15
2019-03-31T04:58:24.983Z,9.73
2019-03-31T05:01:31.314Z,9.48
2019-03-31T05:04:37.677Z,9.40
2019-03-31T05:07:44.160Z,9.20
2019-03-31T05:10:50.426Z,9.88
2019-03-31T05:13:56.735Z,8.68
2019-03-31T05:17:02.952Z,9.63
2019-03-31T05:20:41.900Z,9.65
2019-03-31T05:23:48.261Z,8.35
2019-03-31T05:26:54.519Z,9.10
2019-03-31T05:30:00.784Z,9.50
2019-03-31T05:33:07.277Z,8.68
2019-03-31T05:36:13.631Z,9.35
2019-03-31T05:39:19.900Z,9.10
2019-03-31T05:42:26.272Z,9.53
2019-03-31T05:45:32.734Z,9.53
2019-03-31T05:48:40.174Z,9.83
2019-03-31T05:51:46.507Z,9.28
2019-03-31T05:54:52.768Z,9.35
2019-03-31T05:57:59.037Z,8.40
2019-03-31T06:01:05.523Z,8.15
2019-03-31T06:04:11.914Z,7.20
2019-03-31T06:07:18.144Z,6.75
2019-03-31T06:10:24.407Z,6.47
2019-03-31T06:13:30.796Z,6.42
2019-03-31T06:16:37.658Z,5.60
2019-03-31T06:19:44.040Z,5.50
2019-03-31T06:22:50.438Z,5.22
2019-03-31T06:25:56.664Z,5.00
2019-03-31T06:29:02.975Z,5.00
2019-03-31T06:32:09.423Z,4.87
2019-03-31T06:35:15.787Z,4.35
2019-03-31T06:38:22.055Z,4.10
2019-03-31T06:41:28.416Z,3.87
2019-03-31T06:44:37.995Z,3.70
2019-03-31T06:47:42.699Z,3.50
2019-03-31T06:50:48.956Z,3.87
2019-03-31T06:53:55.319Z,3.62
2019-03-31T06:57:01.587Z,3.30
2019-03-31T07:00:09.027Z,3.58
2019-03-31T07:03:15.467Z,3.58
2019-03-31T07:06:21.867Z,3.50
2019-03-31T07:09:39.468Z,3.75
2019-03-31T07:12:45.779Z,3.05
2019-03-31T07:15:52.131Z,3.52
2019-03-31T07:18:58.472Z,3.15
2019-03-31T07:22:04.848Z,3.20
2019-03-31T07:25:13.104Z,3.83
2019-03-31T07:28:20.683Z,3.27
2019-03-31T07:31:27.127Z,3.35
2019-03-31T07:34:33.527Z,3.08
2019-03-31T07:37:47.216Z,3.20
2019-03-31T07:40:48.341Z,2.83
2019-03-31T07:43:54.831Z,2.90
2019-03-31T07:47:01.105Z,3.05
2019-03-31T07:50:08.520Z,2.70
2019-03-31T07:53:14.874Z,3.20
2019-03-31T07:56:21.379Z,3.22
2019-03-31T07:59:27.895Z,3.05
2019-03-31T08:02:34.291Z,3.08
2019-03-31T08:05:40.695Z,2.90
2019-03-31T08:08:47.027Z,2.80
2019-03-31T08:11:53.551Z,2.90
2019-03-31T08:14:59.942Z,2.70
2019-03-31T08:18:06.235Z,2.87
2019-03-31T08:21:12.751Z,2.75
2019-03-31T08:24:19.199Z,3.20
2019-03-31T08:27:25.592Z,3.55
2019-03-31T08:30:31.968Z,3.22
2019-03-31T08:33:39.409Z,2.87
2019-03-31T08:36:45.828Z,3.10
2019-03-31T08:39:52.147Z,3.05
2019-03-31T08:43:00.024Z,3.10
2019-03-31T08:46:06.472Z,2.80
2019-03-31T08:49:12.904Z,2.80
2019-03-31T08:52:19.404Z,2.87
2019-03-31T08:55:25.779Z,2.70
2019-03-31T08:58:32.219Z,3.05
2019-03-31T09:01:38.691Z,3.15
2019-03-31T09:04:45.047Z,3.15
2019-03-31T09:07:51.324Z,3.22
2019-03-31T09:10:57.935Z,3.10
2019-03-31T09:14:04.527Z,3.12
2019-03-31T09:17:11.130Z,2.83
2019-03-31T09:20:18.197Z,2.83
2019-03-31T09:23:24.505Z,2.90
2019-03-31T09:26:30.880Z,3.30
2019-03-31T09:29:37.259Z,3.70
2019-03-31T09:32:43.637Z,3.20
2019-03-31T09:35:50.088Z,3.20
2019-03-31T09:38:56.463Z,8.60
2019-03-31T09:42:02.887Z,4.90
2019-03-31T09:45:09.920Z,3.85
2019-03-31T09:48:16.295Z,4.58
2019-03-31T09:51:22.756Z,3.72
2019-03-31T09:54:30.363Z,3.77
2019-03-31T09:57:36.837Z,4.12
2019-03-31T10:00:52.010Z,3.50
2019-03-31T10:03:58.363Z,3.37
2019-03-31T10:07:04.775Z,3.80
2019-03-31T10:10:16.767Z,2.90
2019-03-31T10:13:23.124Z,3.05
2019-03-31T10:16:29.589Z,3.40
2019-03-31T10:19:36.151Z,3.15
2019-03-31T10:22:42.672Z,3.00
2019-03-31T10:25:49.004Z,3.27
2019-03-31T10:28:55.475Z,2.87
2019-03-31T10:32:02.904Z,2.90
2019-03-31T10:35:09.636Z,2.98
2019-03-31T10:38:16.160Z,3.25
2019-03-31T10:41:22.583Z,2.47
2019-03-31T10:44:30.028Z,2.75
2019-03-31T10:47:36.241Z,2.42
2019-03-31T10:50:43.539Z,2.33
2019-03-31T10:53:50.167Z,2.70
2019-03-31T10:56:56.484Z,2.70
2019-03-31T11:00:02.767Z,2.67
2019-03-31T11:03:10.484Z,2.85
2019-03-31T11:06:16.825Z,2.40
2019-03-31T11:09:23.187Z,2.30
2019-03-31T11:12:29.589Z,2.33
2019-03-31T11:15:35.969Z,2.20
2019-03-31T11:18:42.450Z,2.22
2019-03-31T11:22:16.395Z,2.25
2019-03-31T11:25:27.504Z,2.02
2019-03-31T11:28:30.727Z,2.22
2019-03-31T11:31:37.063Z,2.00
2019-03-31T11:34:43.361Z,2.20
2019-03-31T11:37:49.739Z,2.00
2019-03-31T11:40:56.143Z,2.17
2019-03-31T11:44:02.580Z,2.00
2019-03-31T11:47:09.008Z,1.87
2019-03-31T11:50:15.720Z,2.10
2019-03-31T11:53:22.204Z,1.80
2019-03-31T11:56:28.464Z,1.80
2019-03-31T11:59:34.928Z,1.82
2019-03-31T12:02:41.408Z,1.67
2019-03-31T12:05:47.958Z,1.80
2019-03-31T12:08:54.307Z,1.72
2019-03-31T12:12:00.584Z,1.70
2019-03-31T12:15:09.418Z,1.82
2019-03-31T12:18:15.892Z,1.82
2019-03-31T12:21:22.356Z,1.87
2019-03-31T12:24:28.716Z,2.08
2019-03-31T12:27:35.170Z,1.72
2019-03-31T12:30:41.567Z,1.80
2019-03-31T12:33:47.931Z,1.95
2019-03-31T12:36:54.223Z,1.60
2019-03-31T12:40:00.512Z,1.40
2019-03-31T12:43:06.983Z,1.90
2019-03-31T12:46:13.315Z,1.60
2019-03-31T12:49:19.721Z,1.37
2019-03-31T12:52:25.956Z,1.65
2019-03-31T12:55:32.316Z,1.40
2019-03-31T12:58:38.584Z,1.40
2019-03-31T13:01:45.067Z,1.75
2019-03-31T13:04:51.430Z,1.40
2019-03-31T13:07:57.797Z,2.05
2019-03-31T13:11:04.272Z,1.20
2019-03-31T13:14:10.647Z,1.60
2019-03-31T13:17:17.016Z,1.60
2019-03-31T13:20:23.271Z,1.25
2019-03-31T13:23:29.576Z,1.07
2019-03-31T13:26:35.911Z,1.47
2019-03-31T13:29:42.388Z,1.40
2019-03-31T13:32:47.415Z,1.30
2019-03-31T13:35:53.616Z,1.27
2019-03-31T13:39:00.125Z,1.40
2019-03-31T13:42:06.351Z,1.85
2019-03-31T13:45:13.024Z,1.35
2019-03-31T13:48:19.287Z,1.12
2019-03-31T13:51:25.556Z,1.30
2019-03-31T13:54:31.867Z,1.10
2019-03-31T13:57:39.839Z,1.12
2019-03-31T14:00:46.117Z,1.20
2019-03-31T14:03:52.515Z,1.10
2019-03-31T14:06:58.743Z,1.20
2019-03-31T14:10:05.683Z,1.30
2019-03-31T14:13:13.098Z,1.30
2019-03-31T14:16:19.392Z,1.20
2019-03-31T14:19:25.704Z,1.40
2019-03-31T14:22:31.916Z,1.22
2019-03-31T14:25:38.184Z,1.00
2019-03-31T14:28:44.458Z,1.10
2019-03-31T14:31:52.123Z,1.15
2019-03-31T14:34:58.663Z,0.93
2019-03-31T14:38:05.001Z,1.10
2019-03-31T14:41:11.367Z,1.35
2019-03-31T14:44:17.666Z,1.10
2019-03-31T14:47:23.902Z,1.20
2019-03-31T14:50:34.984Z,1.12
2019-03-31T14:53:41.247Z,0.90
2019-03-31T14:56:47.548Z,1.00
2019-03-31T14:59:53.927Z,1.00
2019-03-31T15:03:00.247Z,1.07
2019-03-31T15:06:06.574Z,1.00
2019-03-31T15:09:12.782Z,0.90
2019-03-31T15:12:19.166Z,1.00
2019-03-31T15:15:25.571Z,1.00
2019-03-31T15:18:31.899Z,0.90
2019-03-31T15:21:44.089Z,0.90
2019-03-31T15:24:47.367Z,0.95
2019-03-31T15:27:53.771Z,1.02
2019-03-31T15:31:00.172Z,0.80
2019-03-31T15:34:06.411Z,0.90
2019-03-31T15:37:12.814Z,1.00
2019-03-31T15:40:19.290Z,1.12
2019-03-31T15:43:25.615Z,1.00
2019-03-31T15:46:31.920Z,0.90
2019-03-31T15:49:38.146Z,0.80
2019-03-31T15:52:44.559Z,0.98
2019-03-31T15:55:50.932Z,1.22
2019-03-31T15:58:58.396Z,0.90
2019-03-31T16:02:04.786Z,0.82
2019-03-31T16:05:12.982Z,0.82
2019-03-31T16:08:18.831Z,0.90
2019-03-31T16:11:24.587Z,1.10
2019-03-31T16:14:30.343Z,0.90
2019-03-31T16:17:36.195Z,1.05
2019-03-31T16:20:41.944Z,0.80
2019-03-31T16:23:47.799Z,0.90
2019-03-31T16:26:53.471Z,0.95
2019-03-31T16:29:59.218Z,0.90
2019-03-31T16:33:06.987Z,0.82
2019-03-31T16:36:12.366Z,0.80
2019-03-31T16:39:18.119Z,0.90
2019-03-31T16:42:23.879Z,0.65
2019-03-31T16:45:31.340Z,0.90
2019-03-31T16:48:37.235Z,0.70
2019-03-31T16:51:43.057Z,0.80
2019-03-31T16:54:48.776Z,0.70
2019-03-31T16:57:54.496Z,0.70
2019-03-31T17:01:00.153Z,1.00
2019-03-31T17:04:06.211Z,0.70
2019-03-31T17:07:11.863Z,0.70
2019-03-31T17:10:17.659Z,0.90
2019-03-31T17:13:23.683Z,0.95
2019-03-31T17:16:29.537Z,0.90
2019-03-31T17:19:35.284Z,0.98
2019-03-31T17:22:40.823Z,1.07
2019-03-31T17:25:46.544Z,0.80
2019-03-31T17:28:52.534Z,1.05
2019-03-31T17:31:59.227Z,1.02
2019-03-31T17:35:05.295Z,0.80
2019-03-31T17:38:11.059Z,0.80
2019-03-31T17:41:17.171Z,0.82
2019-03-31T17:44:22.980Z,0.88
2019-03-31T17:47:28.937Z,0.90
2019-03-31T17:50:34.827Z,0.60
2019-03-31T17:53:40.552Z,0.90
2019-03-31T17:56:47.231Z,0.72
2019-03-31T17:59:53.083Z,0.90
2019-03-31T18:02:58.947Z,0.78
2019-03-31T18:06:04.735Z,0.70
2019-03-31T18:09:10.543Z,0.72
2019-03-31T18:12:16.300Z,0.62
2019-03-31T18:15:22.055Z,0.82
2019-03-31T18:18:27.807Z,0.90
2019-03-31T18:21:33.711Z,1.00
2019-03-31T18:24:39.537Z,0.80
2019-03-31T18:27:45.395Z,1.17
2019-03-31T18:30:51.086Z,0.90
2019-03-31T18:33:56.943Z,0.90
2019-03-31T18:37:02.643Z,1.20
2019-03-31T18:40:08.724Z,1.40
2019-03-31T18:43:14.580Z,1.10
2019-03-31T18:46:20.460Z,1.20
2019-03-31T18:49:26.394Z,1.00
2019-03-31T18:52:32.138Z,1.00
2019-03-31T18:55:47.547Z,0.93
2019-03-31T18:59:12.339Z,0.98
2019-03-31T19:02:29.399Z,0.80
2019-03-31T19:05:56.959Z,1.02
2019-03-31T19:09:20.249Z,0.75
2019-03-31T19:12:38.779Z,0.80
2019-03-31T19:16:04.011Z,0.82
2019-03-31T19:19:31.854Z,0.60
2019-03-31T19:22:55.880Z,0.70
2019-03-31T19:26:20.893Z,0.62
2019-03-31T19:29:58.028Z,0.60
2019-03-31T19:33:30.062Z,0.80
2019-03-31T19:37:00.847Z,0.80
2019-03-31T19:40:24.084Z,0.85
2019-03-31T19:43:51.848Z,1.10
2019-03-31T19:47:34.785Z,1.02
2019-03-31T19:50:58.458Z,0.65
2019-03-31T19:54:21.620Z,0.93
2019-03-31T19:57:55.325Z,0.70
2019-03-31T20:01:16.643Z,0.80
2019-03-31T20:04:59.643Z,0.70
2019-03-31T20:08:24.358Z,0.75
2019-03-31T20:11:40.792Z,0.57
2019-03-31T20:15:22.006Z,0.82
2019-03-31T20:18:47.996Z,0.82
2019-03-31T20:22:12.739Z,0.70
2019-03-31T20:25:52.559Z,0.93
2019-03-31T20:29:03.943Z,0.90
2019-03-31T20:32:31.923Z,1.07
2019-03-31T20:35:55.506Z,1.15
2019-03-31T20:39:20.120Z,0.95
2019-03-31T20:42:42.735Z,1.07
2019-03-31T20:45:48.599Z,1.25
2019-03-31T20:48:54.663Z,1.12
2019-03-31T20:52:00.399Z,1.70
2019-03-31T20:55:16.112Z,1.20
2019-03-31T20:58:14.431Z,1.32
2019-03-31T21:01:20.223Z,1.05
2019-03-31T21:04:25.974Z,1.27
2019-03-31T21:07:31.739Z,1.30
2019-03-31T21:10:37.690Z,1.30
2019-03-31T21:13:43.485Z,1.20
2019-03-31T21:16:49.311Z,1.10
2019-03-31T21:19:55.070Z,1.20
2019-03-31T21:23:01.067Z,1.00
2019-03-31T21:26:06.780Z,1.10
2019-03-31T21:29:12.571Z,1.17
2019-03-31T21:32:18.391Z,1.20
2019-03-31T21:35:24.167Z,1.00
2019-03-31T21:38:29.932Z,1.25
2019-03-31T21:41:35.648Z,0.95
2019-03-31T21:44:41.551Z,1.07
2019-03-31T21:47:47.480Z,1.10
2019-03-31T21:50:53.232Z,1.00
2019-03-31T21:53:59.127Z,1.32
2019-03-31T21:57:04.954Z,0.90
2019-03-31T22:00:11.961Z,0.88
2019-03-31T22:03:19.357Z,1.00
2019-03-31T22:06:25.187Z,1.20
2019-03-31T22:09:30.984Z,1.15
2019-03-31T22:12:36.791Z,1.12
2019-03-31T22:15:42.563Z,1.10
2019-03-31T22:18:48.446Z,0.98
2019-03-31T22:21:54.272Z,1.20
2019-03-31T22:25:00.384Z,1.15
2019-03-31T22:28:06.287Z,1.20
2019-03-31T22:31:12.058Z,1.50
2019-03-31T22:34:18.063Z,1.25
2019-03-31T22:37:23.957Z,1.10
2019-03-31T22:40:29.820Z,1.10
2019-03-31T22:43:35.625Z,1.40
2019-03-31T22:46:53.784Z,1.02
2019-03-31T22:49:48.752Z,1.12
2019-03-31T22:52:54.473Z,1.00
2019-03-31T22:56:00.167Z,0.85
2019-03-31T22:59:05.928Z,1.35
2019-03-31T23:02:11.745Z,1.10
2019-03-31T23:05:17.640Z,1.15
2019-03-31T23:08:24.367Z,1.22
2019-03-31T23:11:31.264Z,1.02
2019-03-31T23:14:37.024Z,1.35
2019-03-31T23:17:47.883Z,1.20
2019-03-31T23:20:53.748Z,1.45
2019-03-31T23:23:59.858Z,1.17
2019-03-31T23:27:05.572Z,1.02
2019-03-31T23:30:12.031Z,1.17
2019-03-31T23:33:18.101Z,1.07
2019-03-31T23:36:23.750Z,1.42
2019-03-31T23:39:29.620Z,0.95
2019-03-31T23:42:35.260Z,1.05
2019-03-31T23:45:41.127Z,1.17
2019-03-31T23:48:46.980Z,1.10
2019-03-31T23:51:52.783Z,1.10
2019-03-31T23:54:58.704Z,1.10
2019-03-31T23:58:04.448Z,1.00
